createdAt,value
2018-08-31T00:01:04.489Z,6.97
2018-08-31T00:03:44.571Z,7.17
2018-08-31T00:06:24.782Z,6.67
2018-08-31T00:09:08.979Z,6.43
2018-08-31T00:11:52.403Z,7.20
2018-08-31T00:14:21.744Z,6.40
2018-08-31T00:16:51.133Z,6.27
2018-08-31T00:19:20.519Z,6.30
2018-08-31T00:21:50.193Z,6.60
2018-08-31T00:24:30.512Z,8.13
2018-08-31T00:27:10.722Z,6.90
2018-08-31T00:29:53.152Z,6.57
2018-08-31T00:34:40.746Z,6.47
2018-08-31T00:39:32.848Z,6.40
2018-08-31T00:43:13.565Z,6.70
2018-08-31T00:45:42.995Z,7.10
2018-08-31T00:48:12.423Z,6.03
2018-08-31T00:50:41.825Z,6.57
2018-08-31T00:53:11.179Z,6.37
2018-08-31T00:55:40.539Z,7.17
2018-08-31T00:58:09.860Z,7.40
2018-08-31T01:00:39.226Z,6.73
2018-08-31T01:03:08.659Z,6.37
2018-08-31T01:05:41.278Z,6.13
2018-08-31T01:08:10.607Z,6.40
2018-08-31T01:10:40.032Z,5.40
2018-08-31T01:13:09.349Z,5.30
2018-08-31T01:15:38.692Z,5.37
2018-08-31T01:18:08.022Z,7.60
2018-08-31T01:20:37.417Z,6.20
2018-08-31T01:23:06.826Z,5.77
2018-08-31T01:25:36.220Z,6.07
2018-08-31T01:28:05.581Z,5.73
2018-08-31T01:30:34.925Z,5.97
2018-08-31T01:33:04.262Z,5.70
2018-08-31T01:35:33.606Z,5.80
2018-08-31T01:38:03.293Z,6.37
2018-08-31T01:40:32.744Z,6.13
2018-08-31T01:43:02.098Z,6.23
2018-08-31T01:45:31.419Z,5.37
2018-08-31T01:48:00.745Z,6.20
2018-08-31T01:50:30.155Z,5.63
2018-08-31T01:52:59.533Z,6.73
2018-08-31T01:55:32.240Z,5.60
2018-08-31T01:58:02.643Z,6.00
2018-08-31T02:00:32.115Z,6.00
2018-08-31T02:03:01.463Z,5.93
2018-08-31T02:05:30.875Z,5.93
2018-08-31T02:08:00.273Z,6.20
2018-08-31T02:10:30.035Z,6.20
2018-08-31T02:12:59.489Z,5.60
2018-08-31T02:15:28.821Z,5.93
2018-08-31T02:17:58.159Z,5.77
2018-08-31T02:20:27.613Z,5.97
2018-08-31T02:22:56.928Z,6.00
2018-08-31T02:25:26.276Z,5.00
2018-08-31T02:27:55.594Z,6.20
2018-08-31T02:30:25.017Z,5.90
2018-08-31T02:32:54.364Z,6.40
2018-08-31T02:35:23.684Z,5.23
2018-08-31T02:37:53.210Z,4.97
2018-08-31T02:40:22.611Z,6.13
2018-08-31T02:42:52.266Z,5.80
2018-08-31T02:45:21.640Z,5.53
2018-08-31T02:47:50.980Z,5.67
2018-08-31T02:50:20.429Z,5.30
2018-08-31T02:52:49.779Z,5.63
2018-08-31T02:55:19.101Z,5.17
2018-08-31T02:57:48.442Z,5.47
2018-08-31T03:00:17.829Z,6.10
2018-08-31T03:02:47.153Z,6.10
2018-08-31T03:05:16.517Z,5.23
2018-08-31T03:07:45.855Z,6.07
2018-08-31T03:10:15.360Z,5.03
2018-08-31T03:12:44.671Z,5.43
2018-08-31T03:15:14.303Z,5.43
2018-08-31T03:17:43.706Z,5.60
2018-08-31T03:20:13.072Z,6.07
2018-08-31T03:22:42.423Z,6.57
2018-08-31T03:25:11.813Z,4.90
2018-08-31T03:27:41.136Z,5.47
2018-08-31T03:30:10.569Z,5.03
2018-08-31T03:32:40.235Z,5.80
2018-08-31T03:35:09.733Z,5.50
2018-08-31T03:37:39.110Z,5.70
2018-08-31T03:40:08.511Z,5.07
2018-08-31T03:42:38.072Z,5.40
2018-08-31T03:45:07.553Z,5.70
2018-08-31T03:47:36.994Z,5.17
2018-08-31T03:50:06.470Z,5.37
2018-08-31T03:52:35.836Z,7.40
2018-08-31T03:55:05.393Z,5.43
2018-08-31T03:57:34.834Z,4.97
2018-08-31T04:00:04.296Z,5.17
2018-08-31T04:02:33.617Z,4.90
2018-08-31T04:05:02.953Z,5.17
2018-08-31T04:07:32.318Z,6.23
2018-08-31T04:10:01.777Z,7.47
2018-08-31T04:12:31.105Z,5.60
2018-08-31T04:15:00.567Z,5.67
2018-08-31T04:17:30.056Z,17.37
2018-08-31T04:19:59.458Z,17.30
2018-08-31T04:22:28.908Z,7.80
2018-08-31T04:24:58.296Z,20.17
2018-08-31T04:27:27.626Z,13.53
2018-08-31T04:29:57.083Z,13.33
2018-08-31T04:32:26.438Z,12.00
2018-08-31T04:34:55.805Z,10.23
2018-08-31T04:37:25.155Z,9.83
2018-08-31T04:39:54.589Z,15.13
2018-08-31T04:42:24.008Z,13.53
2018-08-31T04:44:53.393Z,15.27
2018-08-31T04:47:23.308Z,14.13
2018-08-31T04:49:52.688Z,9.80
2018-08-31T04:52:22.138Z,9.23
2018-08-31T04:54:51.471Z,6.93
2018-08-31T04:57:20.821Z,7.17
2018-08-31T04:59:50.183Z,9.33
2018-08-31T05:02:19.541Z,6.23
2018-08-31T05:04:48.945Z,6.50
2018-08-31T05:07:18.390Z,8.00
2018-08-31T05:09:47.856Z,7.87
2018-08-31T05:12:17.267Z,6.63
2018-08-31T05:14:46.613Z,11.27
2018-08-31T05:17:16.529Z,8.90
2018-08-31T05:19:45.975Z,5.27
2018-08-31T05:22:15.431Z,5.60
2018-08-31T05:24:44.906Z,6.00
2018-08-31T05:27:14.356Z,7.37
2018-08-31T05:29:43.873Z,6.60
2018-08-31T05:32:13.299Z,6.70
2018-08-31T05:34:43.002Z,5.73
2018-08-31T05:37:12.490Z,5.00
2018-08-31T05:39:41.924Z,5.37
2018-08-31T05:42:11.387Z,5.50
2018-08-31T05:44:40.828Z,5.57
2018-08-31T05:47:10.364Z,5.50
2018-08-31T05:49:40.242Z,6.80
2018-08-31T05:52:09.851Z,5.23
2018-08-31T05:54:39.285Z,6.70
2018-08-31T05:57:08.824Z,5.27
2018-08-31T05:59:38.573Z,5.60
2018-08-31T06:02:08.411Z,5.23
2018-08-31T06:04:38.094Z,5.17
2018-08-31T06:07:07.661Z,5.67
2018-08-31T06:09:37.085Z,7.23
2018-08-31T06:12:06.589Z,5.03
2018-08-31T06:14:36.384Z,5.07
2018-08-31T06:17:06.107Z,5.60
2018-08-31T06:19:35.621Z,5.07
2018-08-31T06:22:04.996Z,6.00
2018-08-31T06:24:34.541Z,5.10
2018-08-31T06:27:04.339Z,5.33
2018-08-31T06:29:34.092Z,6.70
2018-08-31T06:32:03.533Z,4.87
2018-08-31T06:34:32.957Z,4.90
2018-08-31T06:37:02.512Z,5.23
2018-08-31T06:39:31.963Z,5.43
2018-08-31T06:42:01.435Z,5.00
2018-08-31T06:44:32.793Z,4.50
2018-08-31T06:47:02.854Z,5.40
2018-08-31T06:49:32.369Z,5.13
2018-08-31T06:52:02.226Z,5.33
2018-08-31T06:54:31.679Z,7.63
2018-08-31T06:57:01.365Z,5.70
2018-08-31T06:59:30.829Z,5.30
2018-08-31T07:02:00.905Z,4.80
2018-08-31T07:04:30.425Z,5.73
2018-08-31T07:07:00.076Z,5.87
2018-08-31T07:09:29.483Z,5.20
2018-08-31T07:11:59.034Z,5.40
2018-08-31T07:14:28.557Z,5.13
2018-08-31T07:16:58.174Z,5.53
2018-08-31T07:19:27.737Z,5.83
2018-08-31T07:21:57.513Z,4.73
2018-08-31T07:24:26.966Z,4.60
2018-08-31T07:26:56.540Z,5.30
2018-08-31T07:29:26.254Z,6.47
2018-08-31T07:31:55.948Z,4.87
2018-08-31T07:34:25.804Z,5.00
2018-08-31T07:36:55.228Z,5.07
2018-08-31T07:39:24.734Z,5.03
2018-08-31T07:41:54.273Z,4.80
2018-08-31T07:44:24.088Z,5.30
2018-08-31T07:46:54.109Z,4.73
2018-08-31T07:49:23.615Z,4.47
2018-08-31T07:51:53.206Z,4.77
2018-08-31T07:54:22.649Z,4.43
2018-08-31T07:56:52.105Z,5.47
2018-08-31T07:59:21.532Z,4.90
2018-08-31T08:01:51.246Z,4.67
2018-08-31T08:04:20.693Z,5.37
2018-08-31T08:06:50.512Z,5.90
2018-08-31T08:09:19.939Z,5.10
2018-08-31T08:11:49.519Z,4.80
2018-08-31T08:14:19.067Z,4.83
2018-08-31T08:16:48.566Z,4.00
2018-08-31T08:19:18.036Z,4.53
2018-08-31T08:21:47.499Z,5.00
2018-08-31T08:24:16.938Z,4.43
2018-08-31T08:26:46.364Z,4.47
2018-08-31T08:29:15.797Z,5.63
2018-08-31T08:31:45.279Z,4.17
2018-08-31T08:34:14.756Z,4.57
2018-08-31T08:36:44.678Z,4.17
2018-08-31T08:39:14.509Z,4.63
2018-08-31T08:41:44.038Z,4.27
2018-08-31T08:44:13.673Z,5.53
2018-08-31T08:46:43.153Z,4.50
2018-08-31T08:49:12.653Z,4.23
2018-08-31T08:51:42.226Z,4.50
2018-08-31T08:54:11.724Z,4.43
2018-08-31T08:56:41.118Z,4.20
2018-08-31T08:59:10.561Z,4.23
2018-08-31T09:01:40.081Z,4.40
2018-08-31T09:04:09.509Z,5.03
2018-08-31T09:06:39.035Z,5.47
2018-08-31T09:09:09.888Z,4.97
2018-08-31T09:11:40.139Z,4.47
2018-08-31T09:14:10.010Z,4.73
2018-08-31T09:16:39.498Z,4.60
2018-08-31T09:19:08.985Z,4.57
2018-08-31T09:21:38.556Z,4.77
2018-08-31T09:24:08.029Z,4.53
2018-08-31T09:26:37.479Z,4.20
2018-08-31T09:29:06.879Z,4.23
2018-08-31T09:31:36.402Z,4.57
2018-08-31T09:34:05.889Z,4.57
2018-08-31T09:36:35.416Z,4.57
2018-08-31T09:39:06.521Z,4.50
2018-08-31T09:41:35.938Z,5.10
2018-08-31T09:44:05.638Z,4.77
2018-08-31T09:46:35.065Z,4.77
2018-08-31T09:49:04.803Z,4.67
2018-08-31T09:51:34.410Z,4.50
2018-08-31T09:54:03.930Z,3.70
2018-08-31T09:56:33.588Z,3.77
2018-08-31T09:59:03.100Z,4.73
2018-08-31T10:01:37.639Z,4.37
2018-08-31T10:04:07.500Z,4.43
2018-08-31T10:06:36.973Z,4.70
2018-08-31T10:09:08.928Z,3.90
2018-08-31T10:11:38.373Z,4.00
2018-08-31T10:14:08.289Z,4.30
2018-08-31T10:16:37.677Z,4.33
2018-08-31T10:19:07.193Z,4.13
2018-08-31T10:21:36.683Z,3.97
2018-08-31T10:24:06.419Z,4.33
2018-08-31T10:26:35.808Z,4.00
2018-08-31T10:29:05.299Z,4.33
2018-08-31T10:31:34.897Z,3.90
2018-08-31T10:34:04.414Z,4.40
2018-08-31T10:36:33.801Z,4.40
2018-08-31T10:39:03.588Z,4.10
2018-08-31T10:41:33.238Z,4.20
2018-08-31T10:44:02.685Z,4.40
2018-08-31T10:46:32.350Z,4.10
2018-08-31T10:49:02.055Z,4.70
2018-08-31T10:51:31.519Z,4.47
2018-08-31T10:54:01.305Z,4.10
2018-08-31T10:56:30.857Z,4.37
2018-08-31T10:59:00.411Z,4.30
2018-08-31T11:01:30.010Z,4.23
2018-08-31T11:03:59.504Z,4.40
2018-08-31T11:06:29.049Z,4.30
2018-08-31T11:08:58.685Z,5.67
2018-08-31T11:11:28.433Z,5.90
2018-08-31T11:13:57.857Z,8.27
2018-08-31T11:16:27.312Z,8.37
2018-08-31T11:18:56.784Z,8.20
2018-08-31T11:21:26.534Z,6.07
2018-08-31T11:23:55.934Z,5.27
2018-08-31T11:26:25.428Z,3.97
2018-08-31T11:28:54.900Z,6.10
2018-08-31T11:31:24.393Z,6.03
2018-08-31T11:33:53.912Z,4.93
2018-08-31T11:36:23.403Z,4.57
2018-08-31T11:38:52.880Z,4.97
2018-08-31T11:41:22.421Z,5.00
2018-08-31T11:43:51.819Z,4.23
2018-08-31T11:46:21.292Z,4.30
2018-08-31T11:48:50.879Z,4.20
2018-08-31T11:51:20.438Z,4.70
2018-08-31T11:53:49.837Z,5.40
2018-08-31T11:56:19.328Z,4.80
2018-08-31T11:58:48.898Z,4.37
2018-08-31T12:01:18.663Z,5.13
2018-08-31T12:03:48.488Z,4.90
2018-08-31T12:06:17.926Z,4.20
2018-08-31T12:08:47.494Z,4.70
2018-08-31T12:11:17.142Z,5.33
2018-08-31T12:13:46.667Z,4.27
2018-08-31T12:16:16.141Z,4.77
2018-08-31T12:18:45.595Z,4.53
2018-08-31T12:21:15.119Z,4.70
2018-08-31T12:23:44.897Z,5.37
2018-08-31T12:26:14.297Z,4.20
2018-08-31T12:28:43.737Z,5.07
2018-08-31T12:31:13.262Z,4.27
2018-08-31T12:33:42.752Z,4.17
2018-08-31T12:36:12.531Z,4.43
2018-08-31T12:38:42.050Z,4.70
2018-08-31T12:41:11.560Z,4.53
2018-08-31T12:43:41.072Z,4.43
2018-08-31T12:46:10.725Z,4.67
2018-08-31T12:48:40.610Z,3.97
2018-08-31T12:51:10.580Z,4.90
2018-08-31T12:53:40.041Z,7.10
2018-08-31T12:56:09.808Z,4.93
2018-08-31T12:58:39.359Z,5.90
2018-08-31T13:01:09.024Z,5.30
2018-08-31T13:03:38.496Z,5.83
2018-08-31T13:06:08.172Z,5.50
2018-08-31T13:08:37.600Z,4.80
2018-08-31T13:11:07.249Z,4.23
2018-08-31T13:13:36.793Z,5.57
2018-08-31T13:16:06.292Z,7.50
2018-08-31T13:18:35.779Z,4.40
2018-08-31T13:21:05.458Z,5.10
2018-08-31T13:23:35.068Z,4.70
2018-08-31T13:26:04.562Z,4.07
2018-08-31T13:28:34.119Z,4.60
2018-08-31T13:31:03.624Z,4.63
2018-08-31T13:33:33.290Z,4.77
2018-08-31T13:36:02.727Z,5.03
2018-08-31T13:38:32.178Z,4.17
2018-08-31T13:41:01.686Z,4.33
2018-08-31T13:43:31.039Z,5.03
2018-08-31T13:46:00.559Z,4.50
2018-08-31T13:48:30.092Z,4.50
2018-08-31T13:50:59.728Z,5.03
2018-08-31T13:53:29.208Z,4.93
2018-08-31T13:55:58.776Z,4.93
2018-08-31T13:58:28.454Z,6.30
2018-08-31T14:00:58.251Z,8.27
2018-08-31T14:03:27.699Z,7.80
2018-08-31T14:05:57.438Z,8.30
2018-08-31T14:08:26.919Z,6.00
2018-08-31T14:10:56.525Z,7.60
2018-08-31T14:13:26.117Z,6.60
2018-08-31T14:15:55.609Z,8.03
2018-08-31T14:18:25.131Z,7.83
2018-08-31T14:20:54.604Z,6.50
2018-08-31T14:23:24.094Z,6.87
2018-08-31T14:25:53.648Z,6.23
2018-08-31T14:28:23.173Z,6.53
2018-08-31T14:30:52.767Z,6.40
2018-08-31T14:33:22.319Z,7.60
2018-08-31T14:35:51.769Z,6.03
2018-08-31T14:38:21.275Z,6.30
2018-08-31T14:40:50.800Z,6.77
2018-08-31T14:43:20.205Z,6.33
2018-08-31T14:45:49.814Z,7.33
2018-08-31T14:48:19.571Z,8.87
2018-08-31T14:50:49.160Z,7.80
2018-08-31T14:53:18.625Z,7.90
2018-08-31T14:55:48.191Z,8.30
2018-08-31T14:58:17.673Z,8.73
2018-08-31T15:00:47.164Z,8.23
2018-08-31T15:03:16.767Z,8.33
2018-08-31T15:05:46.286Z,9.73
2018-08-31T15:08:16.272Z,8.97
2018-08-31T15:10:45.798Z,7.93
2018-08-31T15:13:15.268Z,7.87
2018-08-31T15:15:44.822Z,7.70
2018-08-31T15:18:14.276Z,7.37
2018-08-31T15:20:43.877Z,8.57
2018-08-31T15:23:13.438Z,8.07
2018-08-31T15:25:42.901Z,8.20
2018-08-31T15:28:12.630Z,7.93
2018-08-31T15:30:42.129Z,7.10
2018-08-31T15:33:11.595Z,7.87
2018-08-31T15:35:41.132Z,7.77
2018-08-31T15:38:11.025Z,8.00
2018-08-31T15:40:40.649Z,8.33
2018-08-31T15:43:10.235Z,8.10
2018-08-31T15:45:39.789Z,7.47
2018-08-31T15:48:09.231Z,7.60
2018-08-31T15:50:38.823Z,7.93
2018-08-31T15:53:08.502Z,9.73
2018-08-31T15:55:38.112Z,7.70
2018-08-31T15:58:07.632Z,8.13
2018-08-31T16:00:37.160Z,8.63
2018-08-31T16:03:06.745Z,8.07
2018-08-31T16:05:36.379Z,9.67
2018-08-31T16:08:05.805Z,8.70
2018-08-31T16:10:35.613Z,7.90
2018-08-31T16:13:05.137Z,8.10
2018-08-31T16:15:34.660Z,10.90
2018-08-31T16:18:04.092Z,8.90
2018-08-31T16:20:33.644Z,10.80
2018-08-31T16:23:03.835Z,8.80
2018-08-31T16:25:33.348Z,13.30
2018-08-31T16:28:02.948Z,13.03
2018-08-31T16:30:32.555Z,11.23
2018-08-31T16:33:02.644Z,9.10
2018-08-31T16:35:32.132Z,13.00
2018-08-31T16:38:01.629Z,11.63
2018-08-31T16:40:31.297Z,10.77
2018-08-31T16:43:08.378Z,9.60
2018-08-31T16:45:37.814Z,12.83
2018-08-31T16:48:07.296Z,10.77
2018-08-31T16:50:36.819Z,11.90
2018-08-31T16:53:06.274Z,10.10
2018-08-31T16:55:35.741Z,9.57
2018-08-31T16:58:05.295Z,10.90
2018-08-31T17:00:34.784Z,11.43
2018-08-31T17:03:04.301Z,9.80
2018-08-31T17:05:33.906Z,8.37
2018-08-31T17:08:03.466Z,10.10
2018-08-31T17:10:33.060Z,9.20
2018-08-31T17:13:02.505Z,11.93
2018-08-31T17:15:31.984Z,13.27
2018-08-31T17:18:01.429Z,9.80
2018-08-31T17:20:30.872Z,11.37
2018-08-31T17:23:00.337Z,13.77
2018-08-31T17:25:29.904Z,10.40
2018-08-31T17:28:04.455Z,14.67
2018-08-31T17:30:33.959Z,8.67
2018-08-31T17:33:08.754Z,17.33
2018-08-31T17:35:43.101Z,16.30
2018-08-31T17:38:12.605Z,12.83
2018-08-31T17:40:42.111Z,7.90
2018-08-31T17:43:11.585Z,13.20
2018-08-31T17:45:41.523Z,9.70
2018-08-31T17:48:10.976Z,7.87
2018-08-31T17:50:40.383Z,9.93
2018-08-31T17:53:09.878Z,10.03
2018-08-31T17:55:39.374Z,18.80
2018-08-31T17:58:08.923Z,11.47
2018-08-31T18:00:38.400Z,16.87
2018-08-31T18:03:07.952Z,10.10
2018-08-31T18:05:37.531Z,15.93
2018-08-31T18:08:06.949Z,17.30
2018-08-31T18:10:36.460Z,21.50
2018-08-31T18:13:05.977Z,17.97
2018-08-31T18:15:35.512Z,15.80
2018-08-31T18:18:04.988Z,15.97
2018-08-31T18:20:34.484Z,23.33
2018-08-31T18:23:04.052Z,41.10
2018-08-31T18:25:33.512Z,46.63
2018-08-31T18:28:03.054Z,36.03
2018-08-31T18:30:32.521Z,27.97
2018-08-31T18:33:02.048Z,23.97
2018-08-31T18:35:31.836Z,22.17
2018-08-31T18:38:01.436Z,23.43
2018-08-31T18:40:30.923Z,18.67
2018-08-31T18:43:00.328Z,18.07
2018-08-31T18:45:29.776Z,16.17
2018-08-31T18:47:59.258Z,10.10
2018-08-31T18:50:28.880Z,13.17
2018-08-31T18:52:58.890Z,15.23
2018-08-31T18:55:28.448Z,16.57
2018-08-31T18:57:57.978Z,25.50
2018-08-31T19:00:27.793Z,19.47
2018-08-31T19:02:57.240Z,12.73
2018-08-31T19:05:26.742Z,13.43
2018-08-31T19:07:56.264Z,19.33
2018-08-31T19:10:27.752Z,14.07
2018-08-31T19:12:57.256Z,15.33
2018-08-31T19:15:26.912Z,8.57
2018-08-31T19:17:56.355Z,9.90
2018-08-31T19:20:25.942Z,12.80
2018-08-31T19:22:55.864Z,11.00
2018-08-31T19:25:25.266Z,10.37
2018-08-31T19:27:54.766Z,10.00
2018-08-31T19:30:24.295Z,10.90
2018-08-31T19:32:53.838Z,9.40
2018-08-31T19:35:23.501Z,8.20
2018-08-31T19:37:53.821Z,10.87
2018-08-31T19:40:23.399Z,8.70
2018-08-31T19:42:52.840Z,11.50
2018-08-31T19:45:22.392Z,9.77
2018-08-31T19:47:51.982Z,7.80
2018-08-31T19:50:21.576Z,7.03
2018-08-31T19:52:51.048Z,12.07
2018-08-31T19:55:20.466Z,10.30
2018-08-31T19:57:49.885Z,6.93
2018-08-31T20:00:19.403Z,8.00
2018-08-31T20:02:48.825Z,9.20
2018-08-31T20:05:18.292Z,9.67
2018-08-31T20:07:47.712Z,7.47
2018-08-31T20:10:17.284Z,6.37
2018-08-31T20:12:46.879Z,7.97
2018-08-31T20:15:16.242Z,7.30
2018-08-31T20:17:45.612Z,6.97
2018-08-31T20:20:15.148Z,9.47
2018-08-31T20:22:44.599Z,6.47
2018-08-31T20:25:13.949Z,8.63
2018-08-31T20:27:43.367Z,9.90
2018-08-31T20:30:12.819Z,7.97
2018-08-31T20:32:42.390Z,9.43
2018-08-31T20:35:11.791Z,8.67
2018-08-31T20:37:41.507Z,7.03
2018-08-31T20:40:10.879Z,6.70
2018-08-31T20:42:40.228Z,7.37
2018-08-31T20:45:10.274Z,6.03
2018-08-31T20:47:39.733Z,7.10
2018-08-31T20:50:09.129Z,5.83
2018-08-31T20:52:38.468Z,6.87
2018-08-31T20:55:07.797Z,7.80
2018-08-31T20:57:37.120Z,6.90
2018-08-31T21:00:07.004Z,6.17
2018-08-31T21:02:36.316Z,6.43
2018-08-31T21:05:05.679Z,7.40
2018-08-31T21:07:35.000Z,8.47
2018-08-31T21:10:04.316Z,6.37
2018-08-31T21:12:33.677Z,6.00
2018-08-31T21:15:03.098Z,7.03
2018-08-31T21:17:32.447Z,5.77
2018-08-31T21:20:01.849Z,7.77
2018-08-31T21:22:31.165Z,6.63
2018-08-31T21:25:00.512Z,5.83
2018-08-31T21:27:29.865Z,7.83
2018-08-31T21:29:59.203Z,6.60
2018-08-31T21:32:28.572Z,7.20
2018-08-31T21:34:57.992Z,8.40
2018-08-31T21:37:27.349Z,6.30
2018-08-31T21:39:56.797Z,5.77
2018-08-31T21:42:26.209Z,6.77
2018-08-31T21:44:55.720Z,6.20
2018-08-31T21:47:25.143Z,4.93
2018-08-31T21:49:54.580Z,5.30
2018-08-31T21:52:23.965Z,6.57
2018-08-31T21:54:53.424Z,5.53
2018-08-31T21:57:22.787Z,6.50
2018-08-31T21:59:52.199Z,5.50
2018-08-31T22:02:21.541Z,5.23
2018-08-31T22:04:50.985Z,5.43
2018-08-31T22:07:20.308Z,5.20
2018-08-31T22:09:49.681Z,5.20
2018-08-31T22:12:19.220Z,5.57
2018-08-31T22:14:48.689Z,8.10
2018-08-31T22:17:18.010Z,5.40
2018-08-31T22:19:47.451Z,5.47
2018-08-31T22:22:16.797Z,7.33
2018-08-31T22:24:46.124Z,5.07
2018-08-31T22:27:15.477Z,6.40
2018-08-31T22:29:44.956Z,5.50
2018-08-31T22:32:14.355Z,5.17
2018-08-31T22:34:43.729Z,5.20
2018-08-31T22:37:13.572Z,4.70
2018-08-31T22:39:42.941Z,5.67
2018-08-31T22:42:12.260Z,5.07
2018-08-31T22:44:41.643Z,6.13
2018-08-31T22:47:11.049Z,4.57
2018-08-31T22:49:40.426Z,5.13
2018-08-31T22:52:09.966Z,5.13
2018-08-31T22:54:39.303Z,4.77
2018-08-31T22:57:08.639Z,4.83
2018-08-31T22:59:38.115Z,5.10
2018-08-31T23:02:07.627Z,4.60
2018-08-31T23:04:37.071Z,4.23
2018-08-31T23:07:10.736Z,4.67
2018-08-31T23:09:40.110Z,4.47
2018-08-31T23:12:09.749Z,4.97
2018-08-31T23:14:39.120Z,5.00
2018-08-31T23:17:08.465Z,4.70
2018-08-31T23:19:37.829Z,4.30
2018-08-31T23:22:08.880Z,4.90
2018-08-31T23:24:38.219Z,5.17
2018-08-31T23:27:07.602Z,5.13
2018-08-31T23:29:36.937Z,5.07
2018-08-31T23:32:06.270Z,4.37
2018-08-31T23:34:35.599Z,4.77
2018-08-31T23:37:05.281Z,4.43
2018-08-31T23:39:34.684Z,5.97
2018-08-31T23:42:04.004Z,4.77
2018-08-31T23:44:33.333Z,5.77
2018-08-31T23:47:02.686Z,4.87
2018-08-31T23:49:32.295Z,4.17
2018-08-31T23:52:01.632Z,5.40
2018-08-31T23:54:31.065Z,4.67
2018-08-31T23:57:00.395Z,4.33
2018-08-31T23:59:29.729Z,4.53
